Tiempo atmosférico en la estación meteorológica de Torre-Pacheco, Murcia (50 m.)



Fecha
DESCASC
Temp. máxima en grados centígrados (hora)
DESCASC
Temp. mínima en grados centígrados (hora)
DESCASC
Temp. media en grados centígrados
DESCASC
Racha de viento máxima en m/sg (hora)
DESCASC
Velocidad máxima media en intervalos de 10 minutos(hora)
DESCASC
Precipitaciones diarias en mm
DESCASC
Precipitaciones de 00:00 a 06:00 en mm
DESCASC
Precipitaciones de 06:00 a 12:00 en mm
DESCASC
Precipitaciones de 12:00 a 18:00 en mm
DESCASC
Precipitaciones de 18:00 a 24:00 en mm
DESCASC
05-04-2020 18.7 (14:40) 11.2 (06:00) 15 8.61 (15:40) 3.89 (16:30) 0 0 0 0 0
04-04-2020 18.1 (16:00) 8.4 (04:00) 13.3 9.17 (15:10) 3.61 (16:40) 0 0 0 0 0
03-04-2020 20.3 (14:30) 10.2 (03:50) 15.2 6.39 (15:30) 2.78 (16:00) 0.2 0.2 0 0 0
02-04-2020 18.6 (13:40) 8.3 (00:00) 13.5 8.61 (00:30) 3.89 (00:30) 4 1 0 0 3
01-04-2020 21.2 (14:10) 12.3 (00:00) 16.8 8.33 (15:30) 5 (15:30) 0.4 0 0 0 0.4
31-03-2020 19.4 (15:10) 12 (00:00) 15.7 7.22 (00:20) 3.61 (02:00) 1.8 0 1.8 0 0
30-03-2020 17.7 (14:50) 9 (00:00) 13.4 10.56 (19:10) 5.28 (19:10) 0 0 0 0 0
29-03-2020 20.7 (14:40) 6.8 (00:00) 13.8 7.78 (17:40) 4.17 (16:10) 0 0 0 0 0
28-03-2020 16.9 (13:50) 8.2 (00:00) 12.5 6.39 (12:00) 3.33 (15:00) 8.8 7.8 1 0 0
27-03-2020 13.6 (15:10) 9.2 (00:00) 11.4 8.06 (15:20) 3.89 (15:20) 11.8 0 0 0 11.8
26-03-2020 19.7 (13:50) 7.5 (00:00) 13.6 8.06 (17:10) 3.89 (17:00) 0.4 0.2 0 0.2 0
25-03-2020 14.8 (14:00) 9.3 (00:00) 12.1 7.5 (00:10) 3.61 (15:30) 0.4 0.2 0 0 0.2
24-03-2020 13.3 (00:00) 11.6 (00:00) 12.5 14.44 (10:30) 6.94 (10:10) 84.8 43.8 24 13 4
23-03-2020 17.5 (13:10) 8.7 (00:00) 13.1 10.28 (14:40) 5 (13:20) 25.6 0 8.2 4.4 13
22-03-2020 15.8 (13:10) 7.7 (06:50) 11.8 5.83 (15:30) 3.33 (15:40) 19.6 0 0 19.6 0
21-03-2020 16.4 (10:30) 10.2 (00:00) 13.3 7.78 (14:00) 3.61 (10:40) 5.2 0 0 5 0.2
20-03-2020 15.9 (15:10) 11.8 (00:00) 13.8 11.11 (19:10) 5 (18:40) 0 0 0 0 0
19-03-2020 17.8 (13:40) 13.1 (00:00) 15.4 10.83 (15:00) 5.28 (14:50) 0 0 0 0 0
18-03-2020 18.8 (12:40) 14.5 (00:00) 16.6 12.5 (14:40) 6.11 (12:50) 0 0 0 0 0
17-03-2020 17.7 (15:10) 7 (00:00) 12.4 13.33 (18:40) 6.11 (18:40) 0.6 0 0 0.6 0
16-03-2020 19.9 (13:20) 8.3 (00:00) 14.1 8.33 (11:20) 4.44 (12:40) 0.2 0 0 0.2 0
15-03-2020 19.1 (14:00) 13.8 (00:00) 16.5 7.22 (14:00) 3.33 (13:00) 0 0 0 0 0
14-03-2020 20.4 (13:10) 9.7 (00:00) 15 5.83 (15:20) 2.78 (15:30) 0 0 0 0 0
13-03-2020 21.3 (12:00) 9.4 (04:20) 15.3 8.89 (15:00) 5 (15:20) 0 0 0 0 0
12-03-2020 25.6 (13:10) 8.3 (00:00) 17 5 (17:30) 2.5 (14:40) 0 0 0 0 0
11-03-2020 26.2 (13:20) 10.6 (00:00) 18.4 7.5 (15:40) 4.44 (15:40) 0 0 0 0 0
10-03-2020 21.4 (14:20) 9.7 (00:00) 15.5 8.33 (16:50) 4.17 (16:50) 0 0 0 0 0
09-03-2020 25 (16:30) 13.2 (00:00) 19.1 8.33 (15:50) 4.17 (15:50) 0 0 0 0 0

Gráficas

Temp. máximas Temp. mínimas Temp. medias Precipitaciones Rachas de viento máximas Velocidades máximas media en intervalos de 10 minutos

Datos horarios

Fecha y hora oficial Temperatura (ºC) Velocidad del viento (km/h) Dirección del viento Racha (km/h) Dirección de racha Precipitación (mm) Presión (hPa) Tendencia (hPa) Humedad (%)
2020-04-07 23:00:00 13.7 3 Norte 12 Nordeste 0 -- -- 88
2020-04-07 22:00:00 14.4 5 Nordeste 10 Norte 0 -- -- 85
2020-04-07 21:00:00 15.2 7 Este 19 Este 0 -- -- 80
2020-04-07 20:00:00 16.1 11 Este 23 Este 0 -- -- 75
2020-04-07 19:00:00 17.5 10 Este 24 Este 0 -- -- 66
2020-04-07 18:00:00 18.4 11 Este 23 Este 0 -- -- 62
2020-04-07 17:00:00 18.7 10 Este 25 Este 0 -- -- 61
2020-04-07 16:00:00 19.2 9 Este 21 Este 0 -- -- 56
2020-04-07 15:00:00 19.6 8 Este 21 Este 0 -- -- 59
2020-04-07 14:00:00 19.3 7 Este 26 Este 0 -- -- 60
2020-04-07 13:00:00 18.5 8 Este 21 Este 0 -- -- 66
2020-04-07 12:00:00 18.2 9 Este 22 Este 0 -- -- 67
2020-04-07 11:00:00 17.1 10 Este 19 Este 0 -- -- 73
2020-04-07 10:00:00 15.4 7 Nordeste 18 Este 0 -- -- 87
2020-04-07 09:00:00 12.6 5 Norte 10 Norte 0 -- -- 98
2020-04-07 08:00:00 11 3 Norte 6 Norte 0 -- -- 98
2020-04-07 07:00:00 11.2 4 Norte 8 Norte 0 -- -- 97
2020-04-07 06:00:00 11.5 3 Norte 10 Norte 0 -- -- 97
2020-04-07 05:00:00 11.3 3 Nordeste 8 Norte 0 -- -- 97
2020-04-07 04:00:00 11.4 4 Norte 8 Norte 0 -- -- 95
2020-04-07 03:00:00 11.7 4 Norte 9 Norte 0 -- -- 94
2020-04-07 02:00:00 12.3 3 Norte 7 Nordeste 0 -- -- 92
2020-04-07 01:00:00 13.3 4 Nordeste 11 Este 0 -- -- 91
2020-04-07 00:00:00 13.8 3 Norte 9 Norte 0 -- -- 90
2020-04-06 23:00:00 14.1 3 Norte 8 Este 0 -- -- 88
2020-04-06 22:00:00 14.6 3 Nordeste 7 Este 0 -- -- 85
2020-04-06 21:00:00 15.4 2 Sudeste 11 Sudeste 0 -- -- 79
2020-04-06 20:00:00 16.4 6 Sudeste 17 Sudeste 0 -- -- 74
2020-04-06 19:00:00 17.2 9 Sudeste 19 Sudeste 0 -- -- 69
2020-04-06 18:00:00 18 7 Este 16 Sudeste 0 -- -- 68
2020-04-06 17:00:00 19 7 Este 19 Este 0 -- -- 66
2020-04-06 16:00:00 19.7 8 Sudeste 19 Sudeste 0 -- -- 62
2020-04-06 15:00:00 19.3 6 Este 20 Este 0 -- -- 62
2020-04-06 14:00:00 19 7 Este 18 Este 0 -- -- 64
2020-04-06 13:00:00 18.9 3 Sudoeste 12 Sur 0 -- -- 58
2020-04-06 12:00:00 18.5 4 Sudoeste 15 Sur 0 -- -- 64
2020-04-06 11:00:00 16.3 3 Este 10 Sudeste 0 -- -- 72
2020-04-06 10:00:00 14.3 2 Norte 8 Noroeste 0 -- -- 86
2020-04-06 09:00:00 10.5 4 Noroeste 9 Noroeste 0 -- -- 98
2020-04-06 08:00:00 9.1 4 Oeste 8 Oeste 0 -- -- 97
2020-04-06 07:00:00 9.1 3 Noroeste 5 Oeste 0 -- -- 96
2020-04-06 06:00:00 9.6 3 Noroeste 6 Norte 0 -- -- 96
2020-04-06 05:00:00 10.1 3 Norte 6 Norte 0 -- -- 95
2020-04-06 04:00:00 10.7 3 Norte 7 Norte 0 -- -- 94
2020-04-06 03:00:00 11.2 2 Noroeste 5 Noroeste 0 -- -- 93
2020-04-06 02:00:00 11.7 2 Noroeste 6 Nordeste 0 -- -- 92
2020-04-06 01:00:00 11.7 4 Norte 7 Norte 0 -- -- 92
2020-04-06 00:00:00 12.2 3 Noroeste 4 Norte 0 -- -- 88
2020-04-05 23:00:00 13.2 0 Calma 8 Este 0 -- -- 85
2020-04-05 22:00:00 13.9 4 Nordeste 9 Nordeste 0 -- -- 81
2020-04-05 21:00:00 14.5 5 Este 14 Nordeste 0 -- -- 77
2020-04-05 20:00:00 15.4 8 Este 18 Este 0 -- -- 73
2020-04-05 19:00:00 16.8 9 Este 23 Este 0 -- -- 67
2020-04-05 18:00:00 17.5 11 Este 25 Este 0 -- -- 63
2020-04-05 17:00:00 17.7 11 Este 30 Este 0 -- -- 60
2020-04-05 16:00:00 18.3 13 Este 31 Nordeste 0 -- -- 59
2020-04-05 15:00:00 18.6 13 Este 27 Nordeste 0 -- -- 58
2020-04-05 14:00:00 18 13 Este 22 Este 0 -- -- 61
2020-04-05 13:00:00 17.8 11 Este 22 Este 0 -- -- 63
2020-04-05 12:00:00 16.7 9 Este 20 Este 0 -- -- 65
2020-04-05 11:00:00 15.6 6 Nordeste 17 Nordeste 0 -- -- 75
2020-04-05 10:00:00 13.9 7 Nordeste 17 Nordeste 0 -- -- 83
2020-04-05 09:00:00 11.9 4 Norte 12 Nordeste 0 -- -- 92
2020-04-05 08:00:00 11.2 4 Norte 10 Nordeste 0 -- -- 94
2020-04-05 07:00:00 11.2 4 Norte 12 Nordeste 0 -- -- 95
2020-04-05 06:00:00 11.2 4 Norte 11 Norte 0 -- -- 94
2020-04-05 05:00:00 11.8 4 Norte 10 Norte 0 -- -- 92
2020-04-05 04:00:00 12.5 4 Norte 9 Nordeste 0 -- -- 90
2020-04-05 03:00:00 12.9 4 Norte 8 Norte 0 -- -- 88
2020-04-05 02:00:00 13.1 4 Norte 8 Norte 0 -- -- 86
2020-04-05 01:00:00 13.3 3 Norte 8 Nordeste 0 -- -- 85
2020-04-05 00:00:00 13.6 4 Nordeste 9 Nordeste 0 -- -- 82
2020-04-04 23:00:00 13.9 4 Nordeste 9 Nordeste 0 -- -- 81
2020-04-04 22:00:00 14.4 3 Este 14 Este 0 -- -- 78
2020-04-04 21:00:00 14.8 7 Este 19 Nordeste 0 -- -- 79
2020-04-04 20:00:00 15.5 10 Este 19 Este 0 -- -- 76
2020-04-04 19:00:00 16.4 10 Este 23 Este 0 -- -- 69
2020-04-04 18:00:00 17.3 9 Este 24 Este 0 -- -- 69
2020-04-04 17:00:00 17.1 8 Este 29 Este 0 -- -- 71
2020-04-04 16:00:00 18.1 11 Este 33 Este 0 -- -- 66
2020-04-04 15:00:00 17.8 10 Este 27 Este 0 -- -- 63
2020-04-04 14:00:00 17.7 10 Este 25 Este 0 -- -- 64
2020-04-04 13:00:00 17.3 10 Este 23 Este 0 -- -- 65
2020-04-04 12:00:00 16 12 Este 23 Este 0 -- -- 71
2020-04-04 11:00:00 15.6 7 Este 17 Este 0 -- -- 77
2020-04-04 10:00:00 14 3 Nordeste 8 Nordeste 0 -- -- 89
2020-04-04 09:00:00 9.5 0 Calma 4 Noroeste 0 -- -- 99
2020-04-04 08:00:00 8.7 2 Noroeste 5 Oeste 0 -- -- 97
2020-04-04 07:00:00 9.1 2 Norte 6 Noroeste 0 -- -- 97
2020-04-04 06:00:00 9.6 2 Noroeste 5 Noroeste 0 -- -- 97
2020-04-04 05:00:00 9 3 Noroeste 6 Noroeste 0 -- -- 97
2020-04-04 04:00:00 8.4 3 Noroeste 5 Noroeste 0 -- -- 95
2020-04-04 03:00:00 9.1 3 Noroeste 5 Noroeste 0 -- -- 94
2020-04-04 02:00:00 9.7 0 Calma 4 Norte 0 -- -- 93
2020-04-04 01:00:00 10.3 2 Norte 4 Norte 0 -- -- 91
2020-04-04 00:00:00 11.3 0 Calma 3 Norte 0 -- -- 87
2020-04-03 23:00:00 12.3 0 Calma 4 Sudeste 0 -- -- 84
2020-04-03 22:00:00 13.2 0 Calma 5 Sudeste 0 -- -- 80
2020-04-03 21:00:00 14.5 3 Sur 9 Sudeste 0 -- -- 74
2020-04-03 20:00:00 16.1 4 Sur 20 Sudeste 0 -- -- 65
2020-04-03 19:00:00 17.3 6 Este 19 Sudeste 0 -- -- 58
2020-04-03 18:00:00 18.1 8 Este 22 Sudeste 0 -- -- 51
2020-04-03 17:00:00 18.8 8 Este 23 Sudeste 0 -- -- 48
2020-04-03 16:00:00 19.3 10 Sudeste 23 Este 0 -- -- 48
2020-04-03 15:00:00 19.3 10 Este 23 Este 0 -- -- 44
2020-04-03 14:00:00 19.7 5 Nordeste 13 Sudeste 0 -- -- 47
2020-04-03 13:00:00 18 2 Noroeste 15 Este 0 -- -- 50
2020-04-03 12:00:00 17.7 5 Norte 15 Norte 0 -- -- 57
2020-04-03 11:00:00 16.3 6 Norte 18 Norte 0 -- -- 68
2020-04-03 10:00:00 14.5 5 Noroeste 15 Noroeste 0 -- -- 77
2020-04-03 09:00:00 11.7 3 Oeste 8 Oeste 0 -- -- 96
2020-04-03 08:00:00 10.8 4 Oeste 6 Oeste 0 -- -- 96
2020-04-03 07:00:00 10.7 5 Oeste 10 Oeste 0 -- -- 96
2020-04-03 06:00:00 10.2 2 Oeste 7 Oeste 0 -- -- 97
2020-04-03 05:00:00 10.7 2 Norte 5 Norte 0 -- -- 97
2020-04-03 04:00:00 10.2 0 Calma 6 Oeste 0 -- -- 96
2020-04-03 03:00:00 10.8 3 Oeste 12 Oeste 0 -- -- 96
2020-04-03 02:00:00 11.3 0 Calma 3 Noroeste 0 -- -- 96
2020-04-03 01:00:00 11.5 0 Calma 7 Este 0.2 -- -- 96
2020-04-03 00:00:00 11.7 2 Oeste 14 Norte 1.8 -- -- 95
2020-04-02 23:00:00 11.9 5 Norte 15 Nordeste 0.6 -- -- 94
2020-04-02 22:00:00 12.5 5 Nordeste 14 Nordeste 0.2 -- -- 92
2020-04-02 21:00:00 13.6 5 Nordeste 9 Nordeste 0.4 -- -- 83
2020-04-02 20:00:00 14.5 2 Norte 12 Sur 0 -- -- 75
2020-04-02 19:00:00 15.9 9 Sur 16 Sur 0 -- -- 73
2020-04-02 18:00:00 16.5 4 Sudeste 12 Sudeste 0 -- -- 74
2020-04-02 17:00:00 16.5 7 Sur 14 Sudoeste 0 -- -- 70
2020-04-02 16:00:00 15.5 5 Sudeste 28 Sudeste 0 -- -- 75
2020-04-02 15:00:00 16.5 6 Este 19 Sur 0 -- -- 66
2020-04-02 14:00:00 18.3 5 Sudeste 14 Este 0 -- -- 60
2020-04-02 13:00:00 18.4 4 Este 11 Sudeste 0 -- -- 59
2020-04-02 12:00:00 17.3 4 Sur 12 Oeste 0 -- -- 62
2020-04-02 11:00:00 15.3 7 Oeste 12 Oeste 0 -- -- 71
2020-04-02 10:00:00 12.9 3 Noroeste 7 Noroeste 0 -- -- 87
2020-04-02 09:00:00 9.1 0 Calma 5 Noroeste 0 -- -- 97
2020-04-02 08:00:00 8.5 4 Oeste 6 Noroeste 0 -- -- 98
2020-04-02 07:00:00 8.4 2 Noroeste 8 Oeste 0 -- -- 97
2020-04-02 06:00:00 9.1 5 Oeste 14 Noroeste 0 -- -- 95
2020-04-02 05:00:00 9.7 5 Oeste 11 Oeste 0 -- -- 95
2020-04-02 04:00:00 10.2 3 Noroeste 6 Noroeste 0 -- -- 93
2020-04-02 03:00:00 11.1 0 Calma 15 Este 0 -- -- 90
2020-04-02 02:00:00 11.7 5 Este 27 Noroeste 0.6 -- -- 89
2020-04-02 01:00:00 12.2 13 Norte 31 Norte 0.4 -- -- 87
2020-04-02 00:00:00 13.7 6 Noroeste 22 Noroeste 0.4 -- -- 86
2020-04-01 23:00:00 14.8 3 Norte 20 Este 0 -- -- 80
2020-04-01 22:00:00 14.6 4 Este 16 Noroeste 0 -- -- 80
2020-04-01 21:00:00 15.7 5 Noroeste 16 Oeste 0 -- -- 78
2020-04-01 20:00:00 16.3 6 Sudoeste 26 Sur 0 -- -- 77
2020-04-01 19:00:00 17.1 14 Sudoeste 27 Sur 0 -- -- 75
2020-04-01 18:00:00 19.8 14 Sudoeste 29 Sudoeste 0 -- -- 66
2020-04-01 17:00:00 20.4 15 Sudoeste 29 Sudoeste 0 -- -- 64
2020-04-01 16:00:00 20.4 14 Sudoeste 30 Sudoeste 0 -- -- 64
2020-04-01 15:00:00 20.9 13 Sur 24 Sur 0 -- -- 57
2020-04-01 14:00:00 21.1 7 Sur 17 Sudoeste 0 -- -- 62
2020-04-01 13:00:00 19.1 3 Sur 14 Sur 0 -- -- 69
2020-04-01 12:00:00 17.8 5 Sudoeste 12 Sur 0 -- -- 74
2020-04-01 11:00:00 16.8 5 Sudoeste 11 Sur 0 -- -- 81
2020-04-01 10:00:00 14 2 Sudoeste 8 Noroeste 0 -- -- 95
2020-04-01 09:00:00 12.8 5 Noroeste 10 Oeste 0 -- -- 99
2020-04-01 08:00:00 12.4 0 Calma 5 Norte 0 -- -- 99
2020-04-01 07:00:00 12.4 0 Calma 7 Noroeste 0 -- -- 99
2020-04-01 06:00:00 12.5 0 Calma 4 Noroeste 0 -- -- 98
2020-04-01 05:00:00 12.7 2 Oeste 5 Noroeste 0 -- -- 98
2020-04-01 04:00:00 13 0 Calma 5 Norte 0 -- -- 98
2020-04-01 03:00:00 13.1 0 Calma 5 Noroeste 0 -- -- 98
2020-04-01 02:00:00 13.3 0 Calma 5 Noroeste 0 -- -- 97
2020-04-01 01:00:00 13.1 0 Calma 5 Sudeste 0 -- -- 96
2020-04-01 00:00:00 13.4 0 Calma 4 Norte 0 -- -- 96
2020-03-31 23:00:00 13.9 0 Calma 2 Oeste 0 -- -- 94
2020-03-31 22:00:00 14.7 0 Calma 6 Nordeste 0 -- -- 92
2020-03-31 21:00:00 14.9 0 Calma 10 Nordeste 0 -- -- 87
2020-03-31 20:00:00 16 4 Este 12 Sudeste 0 -- -- 87
2020-03-31 19:00:00 16.4 7 Este 17 Sudeste 0 -- -- 84
2020-03-31 18:00:00 17.1 6 Este 20 Sudeste 0 -- -- 79
2020-03-31 17:00:00 18 10 Sudeste 22 Sudeste 0 -- -- 74
2020-03-31 16:00:00 18.8 10 Sudeste 21 Sudeste 0 -- -- 68
2020-03-31 15:00:00 19 7 Este 18 Este 0 -- -- 71
2020-03-31 14:00:00 17.1 6 Este 16 Este 0 -- -- 75
2020-03-31 13:00:00 16 6 Este 15 Este 0 -- -- 79
2020-03-31 12:00:00 15.2 5 Nordeste 19 Este 0 -- -- 82
2020-03-31 11:00:00 14.6 7 Nordeste 18 Este 0 -- -- 88
2020-03-31 10:00:00 13.1 6 Este 19 Este 0.4 -- -- 95
2020-03-31 09:00:00 12 5 Norte 22 Noroeste 1.4 -- -- 94
2020-03-31 08:00:00 12.6 10 Oeste 17 Este 0 -- -- 89
2020-03-31 07:00:00 12.6 5 Nordeste 17 Nordeste 0 -- -- 91
2020-03-31 06:00:00 12.6 6 Nordeste 19 Nordeste 0 -- -- 91
2020-03-31 05:00:00 12.4 7 Nordeste 24 Este 0 -- -- 92
2020-03-31 04:00:00 12.4 8 Nordeste 25 Este 0 -- -- 91
2020-03-31 03:00:00 12.6 9 Nordeste 23 Este 0 -- -- 92
2020-03-31 02:00:00 12.5 13 Este 26 Este 0 -- -- 92
2020-03-31 01:00:00 12.5 10 Nordeste 26 Este 0 -- -- 91
2020-03-31 00:00:00 12.6 12 Este 28 Este 0 -- -- 89
2020-03-30 23:00:00 12.7 16 Este 31 Este 0 -- -- 86
2020-03-30 22:00:00 12.7 13 Este 35 Este 0 -- -- 84
2020-03-30 21:00:00 13 17 Este 35 Este 0 -- -- 81
2020-03-30 20:00:00 13.4 17 Este 38 Sudeste 0 -- -- 80
2020-03-30 19:00:00 13.9 18 Este 38 Este 0 -- -- 83
2020-03-30 18:00:00 14.9 16 Este 33 Nordeste 0 -- -- 83
2020-03-30 17:00:00 15.5 15 Nordeste 30 Este 0 -- -- 81
2020-03-30 16:00:00 16.8 9 Este 23 Este 0 -- -- 75
2020-03-30 15:00:00 17.2 11 Nordeste 27 Este 0 -- -- 75
2020-03-30 14:00:00 16.5 10 Este 20 Este 0 -- -- 73
2020-03-30 13:00:00 16.4 4 Este 11 Este 0 -- -- 79
2020-03-30 12:00:00 15.1 2 Norte 10 Oeste 0 -- -- 82
2020-03-30 11:00:00 15.1 4 Oeste 10 Oeste 0 -- -- 80
2020-03-30 10:00:00 13.9 4 Oeste 10 Oeste 0 -- -- 85
2020-03-30 09:00:00 9.8 3 Noroeste 6 Noroeste 0 -- -- 97
2020-03-30 08:00:00 9.1 0 Calma 5 Norte 0 -- -- 97
2020-03-30 07:00:00 9.3 4 Oeste 8 Oeste 0 -- -- 97
2020-03-30 06:00:00 9.3 2 Noroeste 9 Oeste 0 -- -- 96
2020-03-30 05:00:00 9.2 4 Noroeste 7 Oeste 0 -- -- 96
2020-03-30 04:00:00 9.3 3 Oeste 5 Oeste 0 -- -- 94
2020-03-30 03:00:00 10.2 0 Calma 8 Oeste 0 -- -- 90
2020-03-30 02:00:00 11.2 5 Oeste 9 Oeste 0 -- -- 87
2020-03-30 01:00:00 12 7 Oeste 10 Noroeste 0 -- -- 88
2020-03-30 00:00:00 12.2 4 Oeste 8 Oeste 0 -- -- 85
2020-03-29 23:00:00 12.5 0 Calma 9 Oeste 0 -- -- 80
2020-03-29 22:00:00 13.5 3 Oeste 9 Sudoeste 0 -- -- 70
2020-03-29 21:00:00 14.6 4 Sudoeste 14 Sur 0 -- -- 68
2020-03-29 20:00:00 16.9 6 Sudoeste 20 Sudoeste 0 -- -- 54
2020-03-29 19:00:00 18.2 11 Sudoeste 27 Sudoeste 0 -- -- 56
2020-03-29 18:00:00 19.2 14 Sudoeste 28 Sudoeste 0 -- -- 52
2020-03-29 17:00:00 19.9 14 Sudoeste 27 Sudoeste 0 -- -- 49
2020-03-29 16:00:00 20.4 13 Sudoeste 24 Sudoeste 0 -- -- 46
2020-03-29 15:00:00 20.5 11 Sur 22 Sudoeste 0 -- -- 45
2020-03-29 14:00:00 20.4 5 Sudoeste 14 Sur 0 -- -- 43
2020-03-29 13:00:00 18.9 3 Oeste 10 Oeste 0 -- -- 47
2020-03-29 12:00:00 16.9 3 Sudoeste 12 Oeste 0 -- -- 53
2020-03-29 11:00:00 14.3 6 Oeste 14 Oeste 0 -- -- 69
2020-03-29 10:00:00 11.2 10 Oeste 18 Oeste 0 -- -- 78
2020-03-29 09:00:00 7.8 7 Oeste 13 Oeste 0 -- -- 91
2020-03-29 08:00:00 6.8 5 Oeste 10 Oeste 0 -- -- 93
2020-03-29 07:00:00 7.2 4 Oeste 10 Oeste 0 -- -- 92
2020-03-29 06:00:00 7.4 5 Oeste 8 Oeste 0 -- -- 95
2020-03-29 05:00:00 7.5 4 Oeste 8 Oeste 0 -- -- 96
2020-03-29 03:00:00 8.1 7 Oeste 10 Oeste 0 -- -- 95
2020-03-29 01:00:00 8.3 5 Oeste 12 Oeste 0 -- -- 94
2020-03-29 00:00:00 8.2 4 Oeste 8 Noroeste 0 -- -- 94
2020-03-28 23:00:00 9.1 4 Noroeste 7 Noroeste 0 -- -- 91
2020-03-28 22:00:00 10 4 Noroeste 7 Oeste 0 -- -- 90
2020-03-28 21:00:00 11.1 0 Calma 5 Noroeste 0 -- -- 83
2020-03-28 20:00:00 12.5 0 Calma 11 Sudeste 0 -- -- 75
2020-03-28 19:00:00 14.1 5 Sudeste 15 Sudeste 0 -- -- 66
2020-03-28 18:00:00 14.5 7 Este 19 Sudeste 0 -- -- 60
2020-03-28 17:00:00 16.2 8 Sudeste 20 Sudeste 0 -- -- 55
2020-03-28 16:00:00 16.8 7 Sudeste 22 Sudeste 0 -- -- 53
2020-03-28 15:00:00 16.6 12 Sudeste 23 Sudeste 0 -- -- 53
2020-03-28 14:00:00 16.1 5 Nordeste 19 Norte 0 -- -- 56
2020-03-28 13:00:00 16 8 Nordeste 17 Nordeste 0 -- -- 58
2020-03-28 12:00:00 14.6 8 Nordeste 23 Norte 0 -- -- 59
2020-03-28 11:00:00 13.2 9 Norte 22 Noroeste 0 -- -- 70
2020-03-28 10:00:00 10.2 10 Norte 21 Noroeste 0 -- -- 80
2020-03-28 09:00:00 9.4 6 Norte 19 Norte 0 -- -- 86
2020-03-28 08:00:00 8.5 5 Noroeste 14 Noroeste 0.4 -- -- 92
2020-03-28 07:00:00 8.8 4 Noroeste 11 Norte 0.6 -- -- 95
2020-03-28 06:00:00 9.1 5 Norte 12 Norte 0.6 -- -- 95
2020-03-28 05:00:00 9.2 7 Norte 16 Nordeste 0 -- -- 92
2020-03-28 04:00:00 9.4 7 Nordeste 15 Este 0 -- -- 93
2020-03-28 03:00:00 9.3 6 Nordeste 17 Nordeste 2.4 -- -- 98
2020-03-28 02:00:00 9.2 3 Nordeste 11 Nordeste 2 -- -- 97
2020-03-28 01:00:00 9.2 4 Norte 13 Norte 2.8 -- -- 97
2020-03-28 00:00:00 9.2 6 Nordeste 19 Norte 2.6 -- -- 98
2020-03-27 23:00:00 9.6 9 Nordeste 21 Nordeste 5 -- -- 97
2020-03-27 22:00:00 10 5 Norte 12 Nordeste 2.6 -- -- 96
2020-03-27 21:00:00 10.3 6 Nordeste 19 Nordeste 1.4 -- -- 94
2020-03-27 20:00:00 10.6 9 Nordeste 21 Este 0.2 -- -- 92
2020-03-27 19:00:00 11.2 11 Nordeste 28 Nordeste 0 -- -- 87
2020-03-27 18:00:00 11.5 12 Este 28 Nordeste 0 -- -- 84
2020-03-27 17:00:00 11.9 12 Nordeste 28 Nordeste 0 -- -- 83
2020-03-27 16:00:00 12.5 11 Nordeste 29 Nordeste 0 -- -- 80
2020-03-27 15:00:00 13.5 10 Nordeste 25 Nordeste 0 -- -- 78
2020-03-27 14:00:00 11.5 8 Nordeste 17 Norte 0 -- -- 84
2020-03-27 13:00:00 11.9 10 Este 19 Nordeste 0 -- -- 81
2020-03-27 12:00:00 11.8 7 Este 16 Nordeste 0 -- -- 79
2020-03-27 11:00:00 11.4 7 Nordeste 19 Nordeste 0 -- -- 81
2020-03-27 10:00:00 11.4 7 Nordeste 14 Nordeste 0 -- -- 81
2020-03-27 09:00:00 10.8 5 Norte 12 Nordeste 0 -- -- 80
2020-03-27 08:00:00 10.6 3 Nordeste 13 Este 0 -- -- 81
2020-03-27 07:00:00 10.3 3 Noroeste 5 Oeste 0 -- -- 85
2020-03-27 06:00:00 10.6 3 Norte 12 Este 0 -- -- 81
2020-03-27 05:00:00 11 4 Nordeste 14 Este 0 -- -- 80
2020-03-27 04:00:00 11 3 Nordeste 14 Nordeste 0 -- -- 77
2020-03-27 03:00:00 11.5 7 Nordeste 24 Este 0 -- -- 72
2020-03-27 02:00:00 11.8 10 Este 23 Nordeste 0 -- -- 70
2020-03-27 01:00:00 12.1 9 Este 24 Este 0 -- -- 72
2020-03-27 00:00:00 12.3 8 Este 21 Nordeste 0 -- -- 71
2020-03-26 23:00:00 12.6 8 Este 18 Este 0 -- -- 70
2020-03-26 22:00:00 12.7 9 Este 26 Este 0 -- -- 70
2020-03-26 21:00:00 13 12 Este 23 Este 0 -- -- 67
2020-03-26 20:00:00 13.4 10 Este 23 Este 0 -- -- 69
2020-03-26 19:00:00 14.2 8 Este 23 Este 0 -- -- 79
2020-03-26 18:00:00 16 8 Este 29 Sur 0 -- -- 75
2020-03-26 17:00:00 17.3 14 Sudeste 27 Este 0 -- -- 65
2020-03-26 16:00:00 19 8 Nordeste 21 Nordeste 0 -- -- 38
2020-03-26 15:00:00 19.1 4 Norte 17 Norte 0 -- -- 38
2020-03-26 14:00:00 19.5 8 Norte 21 Nordeste 0 -- -- 47
2020-03-26 13:00:00 18.4 11 Norte 22 Nordeste 0.2 -- -- 51
2020-03-26 12:00:00 16.4 4 Norte 13 Nordeste 0 -- -- 70
2020-03-26 11:00:00 14.7 5 Oeste 13 Oeste 0 -- -- 73
2020-03-26 10:00:00 13.3 6 Oeste 15 Oeste 0 -- -- 81
2020-03-26 09:00:00 10.6 7 Oeste 17 Oeste 0 -- -- 91
2020-03-26 08:00:00 8.6 8 Oeste 14 Oeste 0 -- -- 99
2020-03-26 07:00:00 7.9 4 Oeste 8 Oeste 0 -- -- 99
2020-03-26 06:00:00 8.1 2 Noroeste 4 Noroeste 0 -- -- 97
2020-03-26 05:00:00 9 0 Calma 2 Noroeste 0 -- -- 96
2020-03-26 04:00:00 10.3 0 Calma 4 Norte 0 -- -- 95
2020-03-26 03:00:00 10.6 2 Noroeste 8 Nordeste 0.2 -- -- 96
2020-03-26 02:00:00 10.7 3 Nordeste 7 Nordeste 0 -- -- 95
2020-03-26 01:00:00 10.7 0 Calma 4 Norte 0 -- -- 94
2020-03-26 00:00:00 11.1 3 Noroeste 5 Oeste 0 -- -- 93
2020-03-25 23:00:00 11.1 0 Calma 4 Sur 0 -- -- 91
2020-03-25 22:00:00 11.5 0 Calma 4 Este 0.2 -- -- 88
2020-03-25 21:00:00 11.8 2 Sur 6 Sur 0 -- -- 86
2020-03-25 20:00:00 12.2 4 Sur 9 Sur 0 -- -- 81
2020-03-25 19:00:00 12.7 5 Sudeste 15 Sudeste 0 -- -- 75
2020-03-25 18:00:00 13.6 6 Sudeste 17 Sudeste 0 -- -- 67
2020-03-25 17:00:00 14.1 8 Este 22 Este 0 -- -- 66
2020-03-25 16:00:00 14 12 Este 24 Nordeste 0 -- -- 66
2020-03-25 15:00:00 14.1 7 Este 23 Este 0 -- -- 66
2020-03-25 14:00:00 14.8 8 Este 19 Este 0 -- -- 65
2020-03-25 13:00:00 14 10 Este 21 Nordeste 0 -- -- 64
2020-03-25 12:00:00 13.9 11 Este 24 Este 0 -- -- 69
2020-03-25 11:00:00 14 3 Norte 15 Nordeste 0 -- -- 69
2020-03-25 10:00:00 12.8 6 Norte 13 Nordeste 0 -- -- 72
2020-03-25 09:00:00 11 5 Nordeste 14 Nordeste 0 -- -- 78
2020-03-25 08:00:00 9.6 2 Norte 6 Noroeste 0 -- -- 92
2020-03-25 07:00:00 9.7 4 Norte 20 Este 0 -- -- 88
2020-03-25 06:00:00 9.7 6 Nordeste 17 Nordeste 0.2 -- -- 89
2020-03-25 05:00:00 9.6 6 Nordeste 13 Norte 0 -- -- 85
2020-03-25 04:00:00 9.5 6 Norte 18 Nordeste 0 -- -- 85
2020-03-25 03:00:00 10 7 Norte 18 Norte 0 -- -- 88
2020-03-25 02:00:00 10.8 8 Nordeste 23 Nordeste 0 -- -- 87
2020-03-25 01:00:00 11.5 9 Nordeste 27 Nordeste 0 -- -- 83
2020-03-25 00:00:00 11.9 10 Nordeste 25 Nordeste 0 -- -- 92
2020-03-24 23:00:00 12.1 13 Nordeste 38 Este 0.2 -- -- 93
2020-03-24 22:00:00 12.3 15 Nordeste 39 Nordeste 1.2 -- -- 95
2020-03-24 21:00:00 12.9 15 Nordeste 40 Nordeste 0 -- -- 93
2020-03-24 20:00:00 12.9 13 Nordeste 40 Este 0.2 -- -- 95
2020-03-24 19:00:00 12.6 17 Nordeste 39 Este 2.4 -- -- 98
2020-03-24 18:00:00 12.6 13 Nordeste 33 Nordeste 3 -- -- 98
2020-03-24 17:00:00 13 15 Nordeste 34 Nordeste 1.8 -- -- 96
2020-03-24 16:00:00 13.1 14 Nordeste 38 Nordeste 2 -- -- 97
2020-03-24 15:00:00 12.7 20 Este 48 Este 3.4 -- -- 97
2020-03-24 14:00:00 13.2 19 Este 46 Este 1.6 -- -- 97
2020-03-24 13:00:00 13.1 19 Este 46 Este 1.2 -- -- 97
2020-03-24 12:00:00 13.2 23 Este 48 Nordeste 0.4 -- -- 96
2020-03-24 11:00:00 13 23 Este 52 Este 2 -- -- 100
2020-03-24 10:00:00 13 23 Nordeste 46 Este 5.8 -- -- 100
2020-03-24 09:00:00 12.3 19 Nordeste 42 Nordeste 7.6 -- -- 100
2020-03-24 08:00:00 11.8 17 Nordeste 33 Nordeste 2.6 -- -- 99
2020-03-24 07:00:00 11.8 14 Nordeste 34 Nordeste 5.6 -- -- 100
2020-03-24 06:00:00 12.1 15 Nordeste 40 Norte 9 -- -- 99
2020-03-24 05:00:00 12.7 13 Nordeste 38 Norte 3.4 -- -- 98
2020-03-24 04:00:00 12.8 17 Nordeste 34 Nordeste 8.6 -- -- 99
2020-03-24 03:00:00 13 9 Nordeste 24 Nordeste 9.2 -- -- 99
2020-03-24 02:00:00 13 8 Norte 29 Nordeste 9 -- -- 98
2020-03-24 01:00:00 13.2 10 Nordeste 21 Nordeste 4.6 -- -- 98
2020-03-24 00:00:00 13.3 6 Nordeste 19 Este 5.8 -- -- 98
2020-03-23 23:00:00 13.6 12 Este 31 Este 4.8 -- -- 98
2020-03-23 22:00:00 13.8 14 Nordeste 35 Nordeste 1.6 -- -- 96
2020-03-23 21:00:00 14.1 10 Este 27 Nordeste 0.4 -- -- 96
2020-03-23 20:00:00 14.1 11 Nordeste 29 Nordeste 0.2 -- -- 94
2020-03-23 19:00:00 14.3 13 Nordeste 27 Nordeste 0.2 -- -- 96
2020-03-23 18:00:00 14.5 10 Este 24 Nordeste 0 -- -- 96
2020-03-23 17:00:00 14.6 12 Este 31 Este 2.8 -- -- 97
2020-03-23 16:00:00 14.8 11 Este 32 Este 1.6 -- -- 96
2020-03-23 15:00:00 15.4 16 Este 37 Este 0 -- -- 90
2020-03-23 14:00:00 16.5 15 Este 33 Este 0 -- -- 80
2020-03-23 13:00:00 17 10 Nordeste 24 Nordeste 0 -- -- 80
2020-03-23 12:00:00 16.1 9 Nordeste 19 Nordeste 0 -- -- 84
2020-03-23 11:00:00 13.6 8 Norte 16 Norte 0 -- -- 95
2020-03-23 10:00:00 11.3 4 Nordeste 18 Oeste 3.2 -- -- 100
2020-03-23 09:00:00 9.8 4 Noroeste 12 Oeste 4.4 -- -- 100
2020-03-23 08:00:00 9.3 5 Oeste 11 Oeste 0.6 -- -- 99
2020-03-23 07:00:00 8.9 4 Noroeste 9 Oeste 0 -- -- 99
2020-03-23 06:00:00 8.7 2 Noroeste 9 Noroeste 0 -- -- 99
2020-03-23 05:00:00 9.1 4 Noroeste 9 Oeste 0 -- -- 98
2020-03-23 04:00:00 9.6 0 Calma 7 Oeste 0 -- -- 98
2020-03-23 03:00:00 9.9 4 Oeste 10 Oeste 0 -- -- 98
2020-03-23 02:00:00 10.2 5 Oeste 11 Oeste 0 -- -- 98
2020-03-23 01:00:00 10.4 3 Oeste 9 Noroeste 0 -- -- 96
2020-03-23 00:00:00 11.2 5 Oeste 8 Oeste 0 -- -- 97
2020-03-22 23:00:00 11.2 0 Calma 5 Noroeste 0 -- -- 96
2020-03-22 22:00:00 11.9 0 Calma 5 Norte 0 -- -- 95
2020-03-22 21:00:00 11.8 2 Nordeste 8 Nordeste 0 -- -- 93
2020-03-22 20:00:00 12 3 Norte 12 Nordeste 0 -- -- 93
2020-03-22 19:00:00 12.2 5 Nordeste 13 Nordeste 0 -- -- 94
2020-03-22 18:00:00 12.4 0 Calma 13 Nordeste 0 -- -- 93
2020-03-22 17:00:00 12.3 4 Nordeste 15 Norte 0.6 -- -- 95
2020-03-22 16:00:00 11.9 6 Noroeste 21 Oeste 17 -- -- 94
2020-03-22 15:00:00 14.5 4 Sudeste 14 Este 2 -- -- 85
2020-03-22 14:00:00 15.7 4 Este 13 Sudeste 0 -- -- 74
2020-03-22 13:00:00 15.5 5 Este 12 Este 0 -- -- 76
2020-03-22 12:00:00 14.5 0 Calma 4 Este 0 -- -- 79
2020-03-22 11:00:00 13.4 0 Calma 5 Oeste 0 -- -- 82
2020-03-22 10:00:00 12.8 2 Oeste 6 Oeste 0 -- -- 88
2020-03-22 09:00:00 10.5 4 Oeste 6 Oeste 0 -- -- 98
2020-03-22 08:00:00 8.4 2 Noroeste 10 Oeste 0 -- -- 99
2020-03-22 07:00:00 7.7 2 Noroeste 6 Noroeste 0 -- -- 97
2020-03-22 06:00:00 8.5 2 Noroeste 7 Oeste 0 -- -- 97
2020-03-22 05:00:00 8.8 0 Calma 9 Oeste 0 -- -- 97
2020-03-22 04:00:00 9.6 3 Oeste 6 Oeste 0 -- -- 94
2020-03-22 03:00:00 10.8 4 Oeste 8 Oeste 0 -- -- 94
2020-03-22 02:00:00 10.7 3 Oeste 7 Oeste 0 -- -- 93
2020-03-22 01:00:00 10.6 0 Calma 4 Norte 0 -- -- 94
2020-03-22 00:00:00 10.4 3 Norte 8 Norte 0 -- -- 94
2020-03-21 23:00:00 10.4 3 Norte 17 Norte 0 -- -- 92
2020-03-21 22:00:00 10.9 7 Norte 15 Norte 0 -- -- 93
2020-03-21 21:00:00 11.5 8 Norte 17 Norte 0 -- -- 93
2020-03-21 20:00:00 12.9 5 Norte 10 Nordeste 0.2 -- -- 96
2020-03-21 19:00:00 13 3 Nordeste 14 Nordeste 0 -- -- 95
2020-03-21 18:00:00 13.2 7 Nordeste 17 Este 0.2 -- -- 93
2020-03-21 17:00:00 13.3 9 Este 19 Este 1.8 -- -- 95
2020-03-21 16:00:00 13.8 5 Sudeste 16 Este 2 -- -- 93
2020-03-21 15:00:00 14.1 9 Sudeste 23 Sudeste 1 -- -- 87
2020-03-21 14:00:00 15.3 9 Este 28 Este 0 -- -- 82
2020-03-21 13:00:00 15.4 10 Este 27 Este 0 -- -- 79
2020-03-21 12:00:00 15.9 9 Este 25 Este 0 -- -- 74
2020-03-21 11:00:00 16.3 12 Este 24 Este 0 -- -- 74
2020-03-21 10:00:00 15.9 8 Este 22 Este 0 -- -- 75
2020-03-21 09:00:00 14.4 4 Nordeste 12 Este 0 -- -- 79
2020-03-21 08:00:00 12.9 2 Norte 5 Norte 0 -- -- 84
2020-03-21 07:00:00 12.5 0 Calma 5 Noroeste 0 -- -- 87
2020-03-21 06:00:00 12.7 0 Calma 8 Norte 0 -- -- 86
2020-03-21 05:00:00 12.5 2 Norte 5 Norte 0 -- -- 86
2020-03-21 04:00:00 12.6 0 Calma 10 Norte 0 -- -- 85
2020-03-21 03:00:00 13 5 Norte 11 Norte 0 -- -- 83
2020-03-21 02:00:00 12.7 4 Norte 12 Nordeste 0 -- -- 84
2020-03-21 01:00:00 13.2 5 Norte 14 Nordeste 0 -- -- 82
2020-03-21 00:00:00 14.1 6 Nordeste 21 Este 0 -- -- 79
2020-03-20 23:00:00 13.9 7 Nordeste 23 Este 0 -- -- 80
2020-03-20 22:00:00 14.4 10 Este 26 Este 0 -- -- 82
2020-03-20 21:00:00 14.5 10 Este 30 Nordeste 0 -- -- 82
2020-03-20 20:00:00 14.5 13 Este 40 Nordeste 0 -- -- 83
2020-03-20 19:00:00 14.7 12 Este 36 Este 0 -- -- 79
2020-03-20 18:00:00 15 17 Nordeste 37 Nordeste 0 -- -- 74
2020-03-20 17:00:00 15.4 18 Nordeste 33 Nordeste 0 -- -- 71
2020-03-20 16:00:00 15.7 18 Nordeste 31 Nordeste 0 -- -- 68
2020-03-20 15:00:00 15.8 13 Nordeste 31 Nordeste 0 -- -- 67
2020-03-20 14:00:00 15 13 Nordeste 27 Nordeste 0 -- -- 74
2020-03-20 13:00:00 14.9 9 Nordeste 26 Nordeste 0 -- -- 76
2020-03-20 12:00:00 14.6 11 Nordeste 28 Nordeste 0 -- -- 77
2020-03-20 11:00:00 14.8 12 Nordeste 32 Este 0 -- -- 78
2020-03-20 10:00:00 14.4 12 Nordeste 26 Nordeste 0 -- -- 81
2020-03-20 09:00:00 13.7 10 Nordeste 24 Nordeste 0 -- -- 83
2020-03-20 08:00:00 13 8 Nordeste 20 Nordeste 0 -- -- 84
2020-03-20 07:00:00 12.2 6 Nordeste 15 Nordeste 0 -- -- 87
2020-03-20 06:00:00 11.9 7 Norte 16 Norte 0 -- -- 89
2020-03-20 05:00:00 12.1 8 Norte 17 Norte 0 -- -- 90
2020-03-20 04:00:00 12.2 6 Norte 16 Norte 0 -- -- 90
2020-03-20 03:00:00 12.6 8 Nordeste 24 Nordeste 0 -- -- 87
2020-03-20 02:00:00 12.9 7 Nordeste 20 Nordeste 0 -- -- 86
2020-03-20 01:00:00 13.5 8 Nordeste 21 Nordeste 0 -- -- 84
2020-03-20 00:00:00 13.4 8 Nordeste 20 Nordeste 0 -- -- 85
2020-03-19 23:00:00 13.6 6 Nordeste 19 Nordeste 0 -- -- 86
2020-03-19 22:00:00 14 10 Este 23 Este 0 -- -- 83
2020-03-19 21:00:00 14 8 Nordeste 24 Nordeste 0 -- -- 82
2020-03-19 20:00:00 14.4 10 Nordeste 35 Nordeste 0 -- -- 79
2020-03-19 19:00:00 15 11 Este 32 Este 0 -- -- 77
2020-03-19 18:00:00 15.8 16 Este 33 Este 0 -- -- 74
2020-03-19 17:00:00 16.6 14 Este 36 Nordeste 0 -- -- 70
2020-03-19 16:00:00 16.9 18 Este 36 Este 0 -- -- 68
2020-03-19 15:00:00 17.6 18 Este 39 Este 0 -- -- 64
2020-03-19 14:00:00 17.4 15 Nordeste 36 Este 0 -- -- 67
2020-03-19 13:00:00 16.6 16 Nordeste 38 Nordeste 0 -- -- 70
2020-03-19 12:00:00 16.8 15 Este 36 Este 0 -- -- 69
2020-03-19 11:00:00 15.5 16 Nordeste 34 Este 0 -- -- 75
2020-03-19 10:00:00 15.3 14 Nordeste 31 Nordeste 0 -- -- 77
2020-03-19 09:00:00 14.4 10 Nordeste 30 Nordeste 0 -- -- 81
2020-03-19 08:00:00 13.6 10 Nordeste 26 Nordeste 0 -- -- 83
2020-03-19 07:00:00 13.2 10 Nordeste 24 Nordeste 0 -- -- 85
2020-03-19 06:00:00 13.1 9 Nordeste 20 Norte 0 -- -- 84
2020-03-19 05:00:00 13.7 8 Nordeste 30 Este 0 -- -- 84
2020-03-19 04:00:00 14 8 Nordeste 26 Nordeste 0 -- -- 84
2020-03-19 03:00:00 14.1 10 Nordeste 26 Nordeste 0 -- -- 84
2020-03-19 02:00:00 14.1 10 Nordeste 29 Nordeste 0 -- -- 82
2020-03-19 01:00:00 14.2 12 Nordeste 32 Nordeste 0 -- -- 81
2020-03-19 00:00:00 14.5 11 Nordeste 27 Este 0 -- -- 81
2020-03-18 23:00:00 14.7 13 Nordeste 30 Este 0 -- -- 79
2020-03-18 22:00:00 15 13 Nordeste 31 Nordeste 0 -- -- 77
2020-03-18 21:00:00 15.3 14 Nordeste 31 Este 0 -- -- 74
2020-03-18 20:00:00 15.5 13 Nordeste 35 Este 0 -- -- 72
2020-03-18 19:00:00 15.5 19 Este 42 Este 0 -- -- 73
2020-03-18 18:00:00 16.6 19 Este 41 Este 0 -- -- 71
2020-03-18 17:00:00 17.4 21 Este 42 Este 0 -- -- 66
2020-03-18 16:00:00 18.3 18 Este 42 Este 0 -- -- 60
2020-03-18 15:00:00 18.7 18 Este 45 Este 0 -- -- 60
2020-03-18 14:00:00 18.7 19 Nordeste 40 Este 0 -- -- 58
2020-03-18 13:00:00 18.6 21 Este 44 Este 0 -- -- 59
2020-03-18 12:00:00 18.5 19 Este 41 Este 0 -- -- 60
2020-03-18 11:00:00 17.5 18 Este 40 Este 0 -- -- 65
2020-03-18 10:00:00 16.5 17 Este 42 Este 0 -- -- 72
2020-03-18 09:00:00 15.4 15 Este 35 Nordeste 0 -- -- 80
2020-03-18 08:00:00 14.9 15 Nordeste 36 Nordeste 0 -- -- 79
2020-03-18 07:00:00 15.2 15 Nordeste 42 Nordeste 0 -- -- 75
2020-03-18 06:00:00 15.1 17 Nordeste 39 Nordeste 0 -- -- 77
2020-03-18 05:00:00 15 14 Nordeste 35 Este 0 -- -- 79
2020-03-18 04:00:00 14.9 15 Nordeste 34 Nordeste 0 -- -- 81
2020-03-18 03:00:00 15 16 Nordeste 35 Nordeste 0 -- -- 82
2020-03-18 02:00:00 15 13 Nordeste 37 Este 0 -- -- 82
2020-03-18 01:00:00 15 18 Nordeste 40 Nordeste 0 -- -- 84
2020-03-18 00:00:00 15.1 17 Nordeste 37 Nordeste 0 -- -- 87
2020-03-17 23:00:00 15 15 Nordeste 39 Este 0 -- -- 89
2020-03-17 22:00:00 15 17 Nordeste 41 Este 0 -- -- 90
2020-03-17 21:00:00 15.1 17 Este 39 Nordeste 0 -- -- 93
2020-03-17 20:00:00 15.4 20 Nordeste 45 Nordeste 0 -- -- 90
2020-03-17 19:00:00 15.6 16 Este 48 Este 0 -- -- 88
2020-03-17 18:00:00 15.4 14 Nordeste 37 Nordeste 0.6 -- -- 91
2020-03-17 17:00:00 16.6 15 Nordeste 32 Este 0 -- -- 80
2020-03-17 16:00:00 17 15 Nordeste 32 Nordeste 0 -- -- 73
2020-03-17 15:00:00 17.5 11 Nordeste 21 Nordeste 0 -- -- 65
2020-03-17 14:00:00 17 11 Nordeste 27 Nordeste 0 -- -- 62
2020-03-17 13:00:00 17.2 11 Nordeste 25 Norte 0 -- -- 63
2020-03-17 12:00:00 15.8 11 Nordeste 21 Nordeste 0 -- -- 60
2020-03-17 11:00:00 13.3 6 Nordeste 19 Este 0 -- -- 76
2020-03-17 10:00:00 12.8 9 Este 23 Este 0 -- -- 78
2020-03-17 09:00:00 12.9 5 Este 13 Este 0 -- -- 79
2020-03-17 08:00:00 12.6 6 Este 14 Este 0 -- -- 77
2020-03-17 07:00:00 11.8 3 Este 10 Este 0 -- -- 84
2020-03-17 06:00:00 9.8 3 Este 8 Sudeste 0 -- -- 90
2020-03-17 05:00:00 8.7 0 Calma 5 Sudoeste 0 -- -- 91
2020-03-17 04:00:00 8.5 0 Calma 3 Sudoeste 0 -- -- 89
2020-03-17 03:00:00 8.1 0 Calma 4 Noroeste 0 -- -- 88
2020-03-17 02:00:00 7.3 2 Noroeste 5 Noroeste 0 -- -- 87
2020-03-17 01:00:00 7.3 0 Calma 6 Noroeste 0 -- -- 83
2020-03-17 00:00:00 8.3 3 Noroeste 6 Noroeste 0 -- -- 80
2020-03-16 23:00:00 9.2 0 Calma 4 Norte 0 -- -- 79
2020-03-16 22:00:00 9.4 2 Noroeste 6 Nordeste 0 -- -- 77
2020-03-16 21:00:00 10.6 2 Norte 10 Norte 0 -- -- 73
2020-03-16 20:00:00 10.9 4 Norte 13 Noroeste 0 -- -- 67
2020-03-16 19:00:00 10.7 4 Norte 20 Norte 0 -- -- 67
2020-03-16 18:00:00 10.9 9 Norte 23 Norte 0.2 -- -- 72
2020-03-16 17:00:00 12.7 10 Norte 28 Norte 0 -- -- 60
2020-03-16 16:00:00 14.2 10 Norte 22 Nordeste 0 -- -- 63
2020-03-16 15:00:00 15.5 9 Norte 21 Noroeste 0 -- -- 62
2020-03-16 14:00:00 15.5 9 Norte 27 Sudoeste 0 -- -- 66
2020-03-16 13:00:00 19.1 12 Sudoeste 28 Sur 0 -- -- 69
2020-03-16 12:00:00 16.5 13 Sudoeste 30 Sudoeste 0 -- -- 80
2020-03-16 11:00:00 17.1 15 Sur 27 Sur 0 -- -- 75
2020-03-16 10:00:00 16.2 9 Sudoeste 24 Sudoeste 0 -- -- 89
2020-03-16 09:00:00 14.8 2 Sudeste 5 Sudeste 0 -- -- 92
2020-03-16 08:00:00 14 2 Sur 4 Sudoeste 0 -- -- 94
2020-03-16 07:00:00 13.9 0 Calma 6 Sudoeste 0 -- -- 93
2020-03-16 06:00:00 13.9 0 Calma 6 Sudeste 0 -- -- 92
2020-03-16 05:00:00 14.3 4 Este 9 Sudeste 0 -- -- 92
2020-03-16 04:00:00 14.2 2 Nordeste 7 Norte 0 -- -- 92
2020-03-16 03:00:00 14.4 5 Norte 12 Norte 0 -- -- 92
2020-03-16 02:00:00 14.7 0 Calma 6 Norte 0 -- -- 89
2020-03-16 01:00:00 14.9 2 Oeste 5 Oeste 0 -- -- 87
2020-03-16 00:00:00 15 0 Calma 8 Sur 0 -- -- 85
2020-03-15 23:00:00 15.2 3 Sudeste 13 Este 0 -- -- 85
2020-03-15 22:00:00 14.8 6 Este 17 Este 0 -- -- 87
2020-03-15 21:00:00 14.5 2 Nordeste 6 Nordeste 0 -- -- 85
2020-03-15 20:00:00 15.2 2 Sudeste 10 Sudeste 0 -- -- 80
2020-03-15 19:00:00 16 4 Este 14 Este 0 -- -- 76
2020-03-15 18:00:00 17.2 5 Sudeste 19 Sudeste 0 -- -- 71
2020-03-15 17:00:00 17.3 6 Este 20 Sudeste 0 -- -- 72
2020-03-15 16:00:00 18.3 9 Este 19 Este 0 -- -- 66
2020-03-15 15:00:00 19.1 9 Este 22 Este 0 -- -- 63
2020-03-15 14:00:00 19.1 10 Sudeste 26 Sudeste 0 -- -- 61
2020-03-15 13:00:00 18.5 12 Este 21 Este 0 -- -- 64
2020-03-15 12:00:00 17.7 7 Este 16 Nordeste 0 -- -- 64
2020-03-15 11:00:00 16.5 6 Este 12 Nordeste 0 -- -- 74
2020-03-15 10:00:00 15.7 6 Nordeste 13 Nordeste 0 -- -- 80
2020-03-15 09:00:00 14.8 4 Nordeste 10 Nordeste 0 -- -- 85
2020-03-15 08:00:00 14.2 4 Nordeste 10 Nordeste 0 -- -- 88
2020-03-15 07:00:00 14 3 Nordeste 8 Norte 0 -- -- 88
2020-03-15 06:00:00 14 5 Nordeste 12 Nordeste 0 -- -- 86
2020-03-15 05:00:00 13.9 4 Nordeste 9 Norte 0 -- -- 85
2020-03-15 04:00:00 14.4 3 Nordeste 10 Norte 0 -- -- 84
2020-03-15 03:00:00 14.8 4 Norte 9 Norte 0 -- -- 79
2020-03-15 02:00:00 14.8 3 Nordeste 10 Nordeste 0 -- -- 80
2020-03-15 01:00:00 14.8 4 Nordeste 9 Nordeste 0 -- -- 85
2020-03-15 00:00:00 14.8 3 Norte 8 Norte 0 -- -- 87
2020-03-14 23:00:00 14.7 0 Calma 7 Este 0 -- -- 87
2020-03-14 22:00:00 14.4 0 Calma 4 Sudeste 0 -- -- 87
2020-03-14 21:00:00 14.3 0 Calma 5 Sudeste 0 -- -- 86
2020-03-14 20:00:00 15.1 3 Este 10 Sudeste 0 -- -- 84
2020-03-14 19:00:00 16 4 Este 15 Sudeste 0 -- -- 79
2020-03-14 18:00:00 17.4 9 Este 19 Este 0 -- -- 75
2020-03-14 17:00:00 18.4 7 Este 18 Sudeste 0 -- -- 69
2020-03-14 16:00:00 19.3 8 Este 21 Sudeste 0 -- -- 67
2020-03-14 15:00:00 20 8 Este 21 Este 0 -- -- 65
2020-03-14 14:00:00 20.2 6 Este 18 Nordeste 0 -- -- 62
2020-03-14 13:00:00 20.1 8 Sudeste 16 Sudeste 0 -- -- 64
2020-03-14 12:00:00 19.1 4 Este 13 Sudeste 0 -- -- 67
2020-03-14 11:00:00 18.1 4 Nordeste 10 Nordeste 0 -- -- 72
2020-03-14 10:00:00 16.6 4 Nordeste 10 Nordeste 0 -- -- 81
2020-03-14 09:00:00 13.7 2 Norte 4 Noroeste 0 -- -- 88
2020-03-14 08:00:00 10.4 3 Noroeste 6 Noroeste 0 -- -- 93
2020-03-14 07:00:00 9.7 2 Norte 4 Noroeste 0 -- -- 91
2020-03-14 06:00:00 10.4 4 Noroeste 5 Noroeste 0 -- -- 90
2020-03-14 05:00:00 11.2 0 Calma 4 Norte 0 -- -- 89
2020-03-14 04:00:00 12.1 2 Noroeste 4 Noroeste 0 -- -- 87
2020-03-14 03:00:00 12.1 3 Oeste 6 Noroeste 0 -- -- 89
2020-03-14 02:00:00 11.6 0 Calma 6 Norte 0 -- -- 88
2020-03-14 01:00:00 12.4 2 Norte 4 Norte 0 -- -- 85
2020-03-14 00:00:00 13.3 0 Calma 5 Norte 0 -- -- 83
2020-03-13 23:00:00 14 2 Noroeste 6 Norte 0 -- -- 83
2020-03-13 22:00:00 14.8 2 Nordeste 8 Nordeste 0 -- -- 81
2020-03-13 21:00:00 15.4 4 Nordeste 15 Nordeste 0 -- -- 80
2020-03-13 20:00:00 15.9 5 Nordeste 18 Este 0 -- -- 73
2020-03-13 19:00:00 16.6 9 Este 23 Este 0 -- -- 69
2020-03-13 18:00:00 17.6 10 Este 26 Este 0 -- -- 63
2020-03-13 17:00:00 18.2 9 Este 26 Este 0 -- -- 58
2020-03-13 16:00:00 18.4 15 Este 30 Este 0 -- -- 55
2020-03-13 15:00:00 19.6 17 Este 32 Nordeste 0 -- -- 50
2020-03-13 14:00:00 20.5 16 Este 32 Este 0 -- -- 51
2020-03-13 13:00:00 21.1 12 Este 29 Este 0 -- -- 54
2020-03-13 12:00:00 21.3 9 Sudeste 22 Este 0 -- -- 54
2020-03-13 11:00:00 20.4 5 Este 15 Sur 0 -- -- 62
2020-03-13 10:00:00 18.7 6 Este 14 Este 0 -- -- 69
2020-03-13 09:00:00 15 0 Calma 6 Noroeste 0 -- -- 73
2020-03-13 08:00:00 10.3 4 Noroeste 8 Noroeste 0 -- -- 83
2020-03-13 07:00:00 9.7 0 Calma 7 Noroeste 0 -- -- 84
2020-03-13 06:00:00 9.8 2 Noroeste 7 Noroeste 0 -- -- 83
2020-03-13 05:00:00 9.5 3 Noroeste 6 Noroeste 0 -- -- 84
2020-03-13 04:00:00 9.6 2 Noroeste 8 Noroeste 0 -- -- 80
2020-03-13 03:00:00 10 3 Oeste 7 Noroeste 0 -- -- 79
2020-03-13 02:00:00 10.6 2 Noroeste 7 Noroeste 0 -- -- 76
2020-03-13 01:00:00 11.2 3 Oeste 6 Oeste 0 -- -- 74
2020-03-13 00:00:00 11.8 3 Noroeste 6 Noroeste 0 -- -- 75
2020-03-12 23:00:00 12.6 2 Noroeste 6 Noroeste 0 -- -- 73
2020-03-12 22:00:00 13.9 4 Noroeste 8 Noroeste 0 -- -- 71
2020-03-12 21:00:00 15.2 4 Noroeste 6 Noroeste 0 -- -- 67
2020-03-12 20:00:00 17 2 Nordeste 6 Nordeste 0 -- -- 62
2020-03-12 19:00:00 18.9 2 Este 15 Sudeste 0 -- -- 55
2020-03-12 18:00:00 20.4 7 Sudeste 18 Este 0 -- -- 50
2020-03-12 17:00:00 22.2 7 Este 18 Sudeste 0 -- -- 35
2020-03-12 16:00:00 23.9 8 Este 15 Este 0 -- -- 36
2020-03-12 15:00:00 24.2 7 Sudeste 17 Sudeste 0 -- -- 38
2020-03-12 14:00:00 24.7 8 Este 17 Sudeste 0 -- -- 41
2020-03-12 13:00:00 25.1 4 Sudeste 10 Sudeste 0 -- -- 35
2020-03-12 12:00:00 23.4 4 Este 7 Nordeste 0 -- -- 39
2020-03-12 11:00:00 20.6 3 Nordeste 9 Oeste 0 -- -- 49
2020-03-12 10:00:00 17.4 3 Noroeste 9 Oeste 0 -- -- 62
2020-03-12 09:00:00 12.8 4 Oeste 6 Noroeste 0 -- -- 81
2020-03-12 08:00:00 8.8 3 Noroeste 7 Noroeste 0 -- -- 90
2020-03-12 07:00:00 8.4 2 Noroeste 6 Noroeste 0 -- -- 88
2020-03-12 06:00:00 9.1 2 Noroeste 7 Noroeste 0 -- -- 86
2020-03-12 05:00:00 9.4 0 Calma 6 Oeste 0 -- -- 87
2020-03-12 04:00:00 9.1 0 Calma 5 Noroeste 0 -- -- 86
2020-03-12 03:00:00 9.7 3 Oeste 5 Noroeste 0 -- -- 85
2020-03-12 02:00:00 10.3 0 Calma 4 Oeste 0 -- -- 84
2020-03-12 01:00:00 11 3 Noroeste 5 Noroeste 0 -- -- 85
2020-03-12 00:00:00 11.5 0 Calma 3 Noroeste 0 -- -- 79
2020-03-11 23:00:00 12.8 0 Calma 2 Norte 0 -- -- 78
2020-03-11 22:00:00 13.7 0 Calma 4 Norte 0 -- -- 74
2020-03-11 21:00:00 14.8 0 Calma 4 Sur 0 -- -- 70
2020-03-11 20:00:00 17 3 Sur 8 Sudoeste 0 -- -- 62
2020-03-11 19:00:00 19.3 2 Sudoeste 18 Sudoeste 0 -- -- 57
2020-03-11 18:00:00 21 12 Sudoeste 22 Sur 0 -- -- 51
2020-03-11 17:00:00 23.3 11 Sur 23 Sur 0 -- -- 44
2020-03-11 16:00:00 23.4 14 Sur 27 Sur 0 -- -- 46
2020-03-11 15:00:00 23.8 16 Sur 25 Sudeste 0 -- -- 49
2020-03-11 14:00:00 25.1 14 Sur 24 Sudoeste 0 -- -- 46
2020-03-11 13:00:00 25.7 10 Sur 18 Sur 0 -- -- 43
2020-03-11 12:00:00 25.1 7 Sur 13 Sur 0 -- -- 47
2020-03-11 11:00:00 21.8 5 Sudoeste 11 Sudoeste 0 -- -- 52
2020-03-11 10:00:00 18.9 5 Sudoeste 14 Oeste 0 -- -- 59
2020-03-11 09:00:00 15.2 9 Oeste 15 Oeste 0 -- -- 68
2020-03-11 08:00:00 10.9 5 Oeste 9 Oeste 0 -- -- 82
2020-03-11 07:00:00 11.2 0 Calma 9 Oeste 0 -- -- 78
2020-03-11 06:00:00 12.1 4 Oeste 12 Oeste 0 -- -- 75
2020-03-11 05:00:00 12.7 3 Oeste 14 Oeste 0 -- -- 72
2020-03-11 04:00:00 13.2 4 Oeste 16 Oeste 0 -- -- 71
2020-03-11 03:00:00 11.8 4 Oeste 12 Oeste 0 -- -- 78
2020-03-11 02:00:00 11.2 4 Noroeste 9 Oeste 0 -- -- 78
2020-03-11 01:00:00 11.7 5 Oeste 10 Oeste 0 -- -- 76
2020-03-11 00:00:00 11.6 5 Oeste 9 Oeste 0 -- -- 77
2020-03-10 23:00:00 11.5 5 Noroeste 8 Oeste 0 -- -- 78
2020-03-10 22:00:00 11.9 2 Noroeste 4 Noroeste 0 -- -- 72
2020-03-10 21:00:00 13.2 0 Calma 5 Sudoeste 0 -- -- 69
2020-03-10 20:00:00 14.9 3 Sudoeste 13 Sudoeste 0 -- -- 64
2020-03-10 19:00:00 16.4 8 Sudoeste 21 Sudoeste 0 -- -- 58
2020-03-10 18:00:00 17.7 10 Sudoeste 24 Sudoeste 0 -- -- 53
2020-03-10 17:00:00 19.1 15 Sur 30 Sudoeste 0 -- -- 52
2020-03-10 16:00:00 19.8 12 Sur 27 Sudoeste 0 -- -- 49
2020-03-10 15:00:00 21.4 10 Sur 17 Sur 0 -- -- 43
2020-03-10 14:00:00 21 8 Este 20 Sudeste 0 -- -- 46
2020-03-10 13:00:00 19.7 7 Sudeste 19 Este 0 -- -- 52
2020-03-10 12:00:00 18.9 8 Sudeste 20 Sudeste 0 -- -- 59
2020-03-10 11:00:00 18.2 6 Este 15 Este 0 -- -- 61
2020-03-10 10:00:00 16.9 6 Este 15 Este 0 -- -- 67
2020-03-10 09:00:00 13.1 0 Calma 7 Noroeste 0 -- -- 72
2020-03-10 08:00:00 9.9 4 Norte 8 Norte 0 -- -- 71
2020-03-10 07:00:00 10.5 4 Norte 9 Norte 0 -- -- 68
2020-03-10 06:00:00 11.6 6 Norte 10 Norte 0 -- -- 59
2020-03-10 05:00:00 13 4 Norte 15 Norte 0 -- -- 58
2020-03-10 04:00:00 14.8 9 Nordeste 23 Norte 0 -- -- 42
2020-03-10 03:00:00 15.1 3 Norte 13 Norte 0 -- -- 41
2020-03-10 02:00:00 16.3 7 Norte 22 Norte 0 -- -- 38
2020-03-10 01:00:00 14.4 3 Sudoeste 15 Oeste 0 -- -- 47
2020-03-10 00:00:00 13.4 4 Sudoeste 12 Sudoeste 0 -- -- 55
2020-03-09 23:00:00 14.2 3 Sudoeste 13 Oeste 0 -- -- 55
2020-03-09 22:00:00 14.4 3 Noroeste 13 Oeste 0 -- -- 55
2020-03-09 21:00:00 14 2 Este 7 Oeste 0 -- -- 57
2020-03-09 20:00:00 16.1 0 Calma 13 Sur 0 -- -- 51
2020-03-09 19:00:00 18.2 10 Sudoeste 21 Sudoeste 0 -- -- 48
2020-03-09 18:00:00 20.9 7 Sudoeste 24 Sur 0 -- -- 44
2020-03-09 17:00:00 23 13 Sur 25 Sudoeste 0 -- -- 42
2020-03-09 16:00:00 24.5 9 Noroeste 30 Oeste 0 -- -- 28
2020-03-09 15:00:00 23.3 7 Noroeste 18 Noroeste 0 -- -- 29
2020-03-09 14:00:00 21.7 8 Noroeste 22 Norte 0 -- -- 33
2020-03-09 13:00:00 20.3 9 Norte 19 Norte 0 -- -- 36
2020-03-09 12:00:00 20.2 7 Norte 17 Noroeste 0 -- -- 37
2020-03-09 11:00:00 19.9 9 Noroeste 17 Noroeste 0 -- -- 39
2020-03-09 10:00:00 18.9 6 Noroeste 19 Norte 0 -- -- 43
2020-03-09 09:00:00 16.7 4 Noroeste 19 Oeste 0 -- -- 49
2020-03-09 08:00:00 15.6 6 Oeste 20 Noroeste 0 -- -- 49
2020-03-09 07:00:00 14.4 5 Noroeste 19 Oeste 0 -- -- 53
2020-03-09 06:00:00 15.3 6 Noroeste 21 Noroeste 0 -- -- 47
2020-03-09 05:00:00 16 4 Este 20 Norte 0 -- -- 44
2020-03-09 04:00:00 15.8 8 Noroeste 21 Oeste 0 -- -- 43
2020-03-09 03:00:00 14.7 6 Noroeste 21 Oeste 0 -- -- 46
2020-03-09 02:00:00 13.9 4 Oeste 12 Oeste 0 -- -- 59
2020-03-09 01:00:00 14.5 8 Oeste 13 Oeste 0 -- -- 65
2020-03-09 00:00:00 13.5 3 Oeste 8 Sudoeste 0 -- -- 76